Time,TemperatureF,DewpointF,PressureIn,WindDirection,WindDirectionDegrees,WindSpeedMPH,WindSpeedGustMPH,Humidity,HourlyPrecipIn,Conditions,Clouds,dailyrainin,SoftwareType,DateUTC
2013-06-18 00:12:00,69.0,68.0,-100.00,WNW,296,5.0,5.0,96,-99.99,,,-99.99,,2013-06-18 04:12:00,
2013-06-18 00:34:00,67.0,66.0,-100.00,SW,232,6.0,6.0,96,-99.99,,,-99.99,,2013-06-18 04:34:00,
2013-06-18 00:43:00,67.0,66.0,-100.00,SW,232,6.0,6.0,96,-99.99,,,-99.99,,2013-06-18 04:43:00,
2013-06-18 00:53:00,67.0,66.0,-100.00,SW,232,6.0,6.0,96,-99.99,,,-99.99,,2013-06-18 04:53:00,
2013-06-18 01:03:00,67.0,66.0,-100.00,SW,232,6.0,6.0,96,-99.99,,,-99.99,,2013-06-18 05:03:00,
2013-06-18 01:12:00,67.0,66.0,-100.00,SW,232,6.0,6.0,96,-99.99,,,-99.99,,2013-06-18 05:12:00,
2013-06-18 01:22:00,67.0,66.0,-100.00,SW,232,6.0,6.0,96,-99.99,,,-99.99,,2013-06-18 05:22:00,
2013-06-18 01:34:00,67.0,66.0,-100.00,NNW,346,3.0,3.0,96,-99.99,,,-99.99,,2013-06-18 05:34:00,
2013-06-18 01:43:00,66.0,65.0,-100.00,North,6,2.0,2.0,96,-99.99,,,-99.99,,2013-06-18 05:43:00,
2013-06-18 01:53:00,66.0,65.0,-100.00,North,6,2.0,2.0,96,-99.99,,,-99.99,,2013-06-18 05:53:00,
2013-06-18 02:12:00,66.0,65.0,-100.00,North,6,2.0,6.0,96,-99.99,,,-99.99,,2013-06-18 06:12:00,
2013-06-18 02:24:00,66.0,65.0,-100.00,NNW,340,2.0,6.0,96,-99.99,,,-99.99,,2013-06-18 06:24:00,
2013-06-18 02:32:00,65.0,58.0,-100.00,SSW,212,2.0,-999.0,78,-99.99,,,-99.99,,2013-06-18 06:32:00,
2013-06-18 02:43:00,65.0,58.0,-100.00,SSW,212,2.0,-999.0,78,-99.99,,,-99.99,,2013-06-18 06:43:00,
2013-06-18 02:53:00,65.0,58.0,-100.00,SSW,212,2.0,-999.0,78,-99.99,,,-99.99,,2013-06-18 06:53:00,
2013-06-18 03:02:00,65.0,58.0,-100.00,SSW,212,2.0,-999.0,78,-99.99,,,-99.99,,2013-06-18 07:02:00,
2013-06-18 03:12:00,65.0,58.0,-100.00,SSW,212,2.0,-999.0,78,-99.99,,,-99.99,,2013-06-18 07:12:00,
2013-06-18 03:22:00,65.0,58.0,-100.00,SSW,212,2.0,-999.0,78,-99.99,,,-99.99,,2013-06-18 07:22:00,
2013-06-18 03:33:00,65.0,59.0,-100.00,SW,234,8.0,-999.0,81,-99.99,,,-99.99,,2013-06-18 07:33:00,
2013-06-18 03:43:00,62.0,61.0,-100.00,WSW,240,0.0,-999.0,97,-99.99,,,-99.99,,2013-06-18 07:43:00,
2013-06-18 03:53:00,62.0,61.0,-100.00,WSW,240,0.0,-999.0,97,-99.99,,,-99.99,,2013-06-18 07:53:00,
2013-06-18 04:02:00,62.0,61.0,-100.00,WSW,240,0.0,-999.0,98,-99.99,,,-99.99,,2013-06-18 08:02:00,
2013-06-18 04:11:00,62.0,61.0,-100.00,WSW,240,0.0,-999.0,97,-99.99,,,-99.99,,2013-06-18 08:11:00,
2013-06-18 04:23:00,62.0,61.0,-100.00,WSW,240,1.0,-999.0,98,-99.99,,,-99.99,,2013-06-18 08:23:00,
2013-06-18 04:33:00,62.0,61.0,-100.00,NW,314,1.0,-999.0,98,-99.99,,,-99.99,,2013-06-18 08:33:00,
2013-06-18 04:43:00,62.0,61.0,-100.00,NW,314,1.0,-999.0,97,-99.99,,,-99.99,,2013-06-18 08:43:00,
2013-06-18 04:52:00,62.0,61.0,-100.00,NW,314,1.0,-999.0,98,-99.99,,,-99.99,,2013-06-18 08:52:00,
2013-06-18 05:02:00,62.0,61.0,-100.00,NW,314,1.0,-999.0,98,-99.99,,,-99.99,,2013-06-18 09:02:00,
2013-06-18 05:12:00,62.0,61.0,-100.00,East,100,0.0,-999.0,98,-99.99,,,-99.99,,2013-06-18 09:12:00,
2013-06-18 05:22:00,62.0,62.0,-100.00,East,100,1.0,-999.0,99,-99.99,,,-99.99,,2013-06-18 09:22:00,
2013-06-18 05:34:00,62.0,61.0,-100.00,North,352,2.0,-999.0,98,-99.99,,,-99.99,,2013-06-18 09:34:00,
2013-06-18 05:43:00,62.0,61.0,-100.00,North,352,1.0,2.0,98,-99.99,,,-99.99,,2013-06-18 09:43:00,
2013-06-18 05:53:00,62.0,62.0,-100.00,SSE,165,1.0,2.0,99,-99.99,,,-99.99,,2013-06-18 09:53:00,
2013-06-18 06:02:00,62.0,61.0,-100.00,SSE,165,1.0,2.0,98,-99.99,,,-99.99,,2013-06-18 10:02:00,
2013-06-18 06:11:00,62.0,61.0,-100.00,SSE,165,0.0,2.0,97,-99.99,,,-99.99,,2013-06-18 10:11:00,
2013-06-18 06:22:00,62.0,61.0,-100.00,South,190,1.0,2.0,98,-99.99,,,-99.99,,2013-06-18 10:22:00,
2013-06-18 06:43:00,58.0,58.0,-100.00,South,175,1.0,2.0,99,-99.99,,,-99.99,,2013-06-18 10:43:00,
2013-06-18 06:53:00,58.0,58.0,-100.00,South,185,1.0,2.0,99,-99.99,,,-99.99,,2013-06-18 10:53:00,
2013-06-18 07:22:00,61.0,60.0,-100.00,NNW,330,1.0,2.0,97,-99.99,,,-99.99,,2013-06-18 11:22:00,
2013-06-18 07:32:00,61.0,60.0,-100.00,NNW,330,1.0,2.0,97,-99.99,,,-99.99,,2013-06-18 11:32:00,
2013-06-18 08:11:00,63.0,62.0,-100.00,NNW,335,1.0,2.0,98,-99.99,,,-99.99,,2013-06-18 12:11:00,
2013-06-18 08:22:00,63.0,63.0,-100.00,NNW,335,1.0,2.0,99,-99.99,,,-99.99,,2013-06-18 12:22:00,
2013-06-18 08:33:00,64.0,63.0,-100.00,North,0,2.0,5.0,98,-99.99,,,-99.99,,2013-06-18 12:33:00,
2013-06-18 08:43:00,65.0,64.0,-100.00,NNE,25,2.0,6.0,98,-99.99,,,-99.99,,2013-06-18 12:43:00,
2013-06-18 08:52:00,65.0,64.0,-100.00,ENE,60,2.0,6.0,98,-99.99,,,-99.99,,2013-06-18 12:52:00,
2013-06-18 09:02:00,65.0,64.0,-100.00,NE,40,3.0,6.0,96,-99.99,,,-99.99,,2013-06-18 13:02:00,
2013-06-18 09:12:00,65.0,64.0,-100.00,NE,40,3.0,6.0,96,-99.99,,,-99.99,,2013-06-18 13:12:00,
2013-06-18 09:22:00,67.0,66.0,-100.00,NE,35,2.0,6.0,96,-99.99,,,-99.99,,2013-06-18 13:22:00,
2013-06-18 09:33:00,66.0,65.0,-100.00,ENE,65,2.0,6.0,95,-99.99,,,-99.99,,2013-06-18 13:33:00,
2013-06-18 09:43:00,67.0,65.0,-100.00,South,170,0.0,6.0,93,-99.99,,,-99.99,,2013-06-18 13:43:00,
2013-06-18 09:52:00,67.0,65.0,-100.00,ESE,120,1.0,6.0,91,-99.99,,,-99.99,,2013-06-18 13:52:00,
2013-06-18 10:02:00,67.0,63.0,-100.00,East,85,1.0,6.0,87,-99.99,,,-99.99,,2013-06-18 14:02:00,
2013-06-18 10:12:00,68.0,63.0,-100.00,West,270,1.0,6.0,84,-99.99,,,-99.99,,2013-06-18 14:12:00,
2013-06-18 10:22:00,69.0,62.0,-100.00,ENE,70,2.0,6.0,79,-99.99,,,-99.99,,2013-06-18 14:22:00,
2013-06-18 10:33:00,70.0,62.0,-100.00,ENE,65,1.0,6.0,75,-99.99,,,-99.99,,2013-06-18 14:33:00,
2013-06-18 10:43:00,69.0,61.0,-100.00,ENE,65,2.0,6.0,75,-99.99,,,-99.99,,2013-06-18 14:43:00,
2013-06-18 10:53:00,70.0,61.0,-100.00,North,0,3.0,6.0,74,-99.99,,,-99.99,,2013-06-18 14:53:00,
2013-06-18 11:02:00,71.0,61.0,-100.00,East,100,1.0,6.0,72,-99.99,,,-99.99,,2013-06-18 15:02:00,
2013-06-18 11:11:00,70.0,63.0,-100.00,SE,130,1.0,6.0,77,-99.99,,,-99.99,,2013-06-18 15:11:00,
2013-06-18 11:22:00,71.0,63.0,-100.00,East,100,1.0,6.0,77,-99.99,,,-99.99,,2013-06-18 15:22:00,
2013-06-18 11:33:00,71.0,61.0,-100.00,East,85,1.0,6.0,73,-99.99,,,-99.99,,2013-06-18 15:33:00,
2013-06-18 11:43:00,71.0,62.0,-100.00,NE,35,3.0,5.0,72,-99.99,,,-99.99,,2013-06-18 15:43:00,
2013-06-18 12:23:00,72.0,62.0,-100.00,East,80,1.0,5.0,70,-99.99,,,-99.99,,2013-06-18 16:23:00,
2013-06-18 16:23:00,61.0,60.0,-100.00,NE,45,3.0,8.0,94,-99.99,,,-99.99,,2013-06-18 20:23:00,
2013-06-18 16:33:00,61.0,59.0,-100.00,NE,35,5.0,8.0,93,-99.99,,,-99.99,,2013-06-18 20:33:00,
2013-06-18 16:43:00,61.0,59.0,-100.00,NNE,30,3.0,8.0,94,-99.99,,,-99.99,,2013-06-18 20:43:00,
2013-06-18 16:52:00,61.0,59.0,-100.00,NNE,30,3.0,8.0,94,-99.99,,,-99.99,,2013-06-18 20:52:00,
2013-06-18 17:02:00,61.0,60.0,-100.00,SW,225,1.0,6.0,95,-99.99,,,-99.99,,2013-06-18 21:02:00,
2013-06-18 17:12:00,61.0,59.0,-100.00,South,185,0.0,6.0,94,-99.99,,,-99.99,,2013-06-18 21:12:00,
2013-06-18 17:23:00,61.0,59.0,-100.00,South,185,0.0,6.0,94,-99.99,,,-99.99,,2013-06-18 21:23:00,
2013-06-18 17:33:00,61.0,59.0,-100.00,ENE,75,2.0,5.0,94,-99.99,,,-99.99,,2013-06-18 21:33:00,
2013-06-18 17:43:00,61.0,60.0,-100.00,ENE,75,1.0,5.0,95,-99.99,,,-99.99,,2013-06-18 21:43:00,
2013-06-18 17:52:00,61.0,60.0,-100.00,ENE,65,2.0,5.0,95,-99.99,,,-99.99,,2013-06-18 21:52:00,
2013-06-18 18:02:00,61.0,60.0,-100.00,ENE,60,2.0,5.0,95,-99.99,,,-99.99,,2013-06-18 22:02:00,
2013-06-18 18:12:00,61.0,60.0,-100.00,ESE,105,1.0,5.0,95,-99.99,,,-99.99,,2013-06-18 22:12:00,
2013-06-18 18:22:00,61.0,60.0,-100.00,SE,145,1.0,3.0,95,-99.99,,,-99.99,,2013-06-18 22:22:00,
2013-06-18 18:34:00,61.0,60.0,-100.00,SE,145,1.0,3.0,96,-99.99,,,-99.99,,2013-06-18 22:34:00,
2013-06-18 18:43:00,61.0,59.0,-100.00,SE,145,1.0,3.0,95,-99.99,,,-99.99,,2013-06-18 22:43:00,
2013-06-18 18:53:00,61.0,59.0,-100.00,East,85,1.0,6.0,96,-99.99,,,-99.99,,2013-06-18 22:53:00,
2013-06-18 19:02:00,61.0,59.0,-100.00,WSW,245,1.0,6.0,96,-99.99,,,-99.99,,2013-06-18 23:02:00,
2013-06-18 19:12:00,61.0,59.0,-100.00,WSW,245,1.0,6.0,96,-99.99,,,-99.99,,2013-06-18 23:12:00,
2013-06-18 19:23:00,60.0,59.0,-100.00,South,190,1.0,6.0,96,-99.99,,,-99.99,,2013-06-18 23:23:00,
2013-06-18 19:38:00,60.0,59.0,-100.00,SSE,155,1.0,3.0,96,-99.99,,,-99.99,,2013-06-18 23:38:00,
2013-06-18 19:48:00,60.0,59.0,-100.00,NE,55,2.0,3.0,96,-99.99,,,-99.99,,2013-06-18 23:48:00,
2013-06-18 19:53:00,60.0,59.0,-100.00,NNE,20,1.0,3.0,96,-99.99,,,-99.99,,2013-06-18 23:53:00,
2013-06-18 20:02:00,60.0,59.0,-100.00,NNE,20,1.0,3.0,96,-99.99,,,-99.99,,2013-06-19 00:02:00,
2013-06-18 20:12:00,60.0,59.0,-100.00,NE,55,1.0,5.0,96,-99.99,,,-99.99,,2013-06-19 00:12:00,
2013-06-18 20:22:00,60.0,59.0,-100.00,North,5,5.0,5.0,96,-99.99,,,-99.99,,2013-06-19 00:22:00,
2013-06-18 21:22:00,60.0,58.0,-100.00,NNE,15,1.0,6.0,96,-99.99,,,-99.99,,2013-06-19 01:22:00,
2013-06-18 21:32:00,59.0,58.0,-100.00,East,95,2.0,5.0,96,-99.99,,,-99.99,,2013-06-19 01:32:00,
2013-06-18 21:43:00,59.0,58.0,-100.00,North,355,1.0,5.0,96,-99.99,,,-99.99,,2013-06-19 01:43:00,
2013-06-18 21:53:00,59.0,58.0,-100.00,NNE,15,2.0,5.0,96,-99.99,,,-99.99,,2013-06-19 01:53:00,
2013-06-18 22:02:00,59.0,58.0,-100.00,NNE,25,1.0,5.0,96,-99.99,,,-99.99,,2013-06-19 02:02:00,
2013-06-18 22:11:00,59.0,58.0,-100.00,NNW,335,2.0,5.0,96,-99.99,,,-99.99,,2013-06-19 02:11:00,
2013-06-18 22:21:00,59.0,58.0,-100.00,NE,40,2.0,5.0,97,-99.99,,,-99.99,,2013-06-19 02:21:00,
2013-06-18 22:32:00,59.0,58.0,-100.00,NE,35,0.0,5.0,96,-99.99,,,-99.99,,2013-06-19 02:32:00,
2013-06-18 22:42:00,59.0,58.0,-100.00,ENE,60,1.0,5.0,96,-99.99,,,-99.99,,2013-06-19 02:42:00,
2013-06-18 22:52:00,58.0,57.0,-100.00,SSE,160,1.0,2.0,96,-99.99,,,-99.99,,2013-06-19 02:52:00,
2013-06-18 23:01:00,58.0,57.0,-100.00,SSE,150,0.0,2.0,96,-99.99,,,-99.99,,2013-06-19 03:01:00,
2013-06-18 23:12:00,58.0,57.0,-100.00,North,10,2.0,2.0,97,-99.99,,,-99.99,,2013-06-19 03:12:00,
2013-06-18 23:22:00,58.0,57.0,-100.00,NNE,15,1.0,2.0,96,-99.99,,,-99.99,,2013-06-19 03:22:00,
2013-06-18 23:33:00,58.0,57.0,-100.00,East,85,1.0,2.0,96,-99.99,,,-99.99,,2013-06-19 03:33:00,
2013-06-18 23:43:00,58.0,57.0,-100.00,NNW,330,2.0,2.0,97,-99.99,,,-99.99,,2013-06-19 03:43:00,
2013-06-18 23:52:00,58.0,57.0,-100.00,NNW,345,2.0,2.0,96,-99.99,,,-99.99,,2013-06-19 03:52:00,